sensor_id;sensor_type;location;lat;lon;timestamp;P1;durP1;ratioP1;P2;durP2;ratioP2
52458;SDS011;38372;52.902;6.024;2022-07-23T00:00:54;9.18;;;5.43;;
52458;SDS011;38372;52.902;6.024;2022-07-23T00:03:20;65.75;;;7.70;;
52458;SDS011;38372;52.902;6.024;2022-07-23T00:05:46;34.88;;;6.30;;
52458;SDS011;38372;52.902;6.024;2022-07-23T00:08:11;37.53;;;6.28;;
52458;SDS011;38372;52.902;6.024;2022-07-23T00:10:37;7.45;;;4.28;;
52458;SDS011;38372;52.902;6.024;2022-07-23T00:13:03;73.82;;;7.53;;
52458;SDS011;38372;52.902;6.024;2022-07-23T00:15:29;202.23;;;14.98;;
52458;SDS011;38372;52.902;6.024;2022-07-23T00:17:55;57.13;;;7.13;;
52458;SDS011;38372;52.902;6.024;2022-07-23T00:20:21;24.88;;;7.18;;
52458;SDS011;38372;52.902;6.024;2022-07-23T00:22:51;6.55;;;3.50;;
52458;SDS011;38372;52.902;6.024;2022-07-23T00:25:19;89.35;;;8.20;;
52458;SDS011;38372;52.902;6.024;2022-07-23T00:27:46;7.95;;;3.80;;
52458;SDS011;38372;52.902;6.024;2022-07-23T00:30:12;10.13;;;5.68;;
52458;SDS011;38372;52.902;6.024;2022-07-23T00:32:45;26.42;;;6.97;;
52458;SDS011;38372;52.902;6.024;2022-07-23T00:35:14;90.63;;;8.30;;
52458;SDS011;38372;52.902;6.024;2022-07-23T00:37:41;55.40;;;3.55;;
52458;SDS011;38372;52.902;6.024;2022-07-23T00:40:08;99.25;;;7.00;;
52458;SDS011;38372;52.902;6.024;2022-07-23T00:42:35;136.73;;;8.75;;
52458;SDS011;38372;52.902;6.024;2022-07-23T00:45:00;198.13;;;12.60;;
52458;SDS011;38372;52.902;6.024;2022-07-23T00:47:26;126.95;;;7.35;;
52458;SDS011;38372;52.902;6.024;2022-07-23T00:49:52;158.45;;;10.15;;
52458;SDS011;38372;52.902;6.024;2022-07-23T00:52:18;31.48;;;4.57;;
52458;SDS011;38372;52.902;6.024;2022-07-23T00:54:44;310.10;;;17.30;;
52458;SDS011;38372;52.902;6.024;2022-07-23T00:57:10;95.80;;;6.80;;
52458;SDS011;38372;52.902;6.024;2022-07-23T00:59:38;156.73;;;9.07;;
52458;SDS011;38372;52.902;6.024;2022-07-23T01:02:04;53.10;;;6.65;;
52458;SDS011;38372;52.902;6.024;2022-07-23T01:04:30;221.20;;;16.80;;
52458;SDS011;38372;52.902;6.024;2022-07-23T01:06:57;27.90;;;5.45;;
52458;SDS011;38372;52.902;6.024;2022-07-23T01:09:23;49.70;;;7.55;;
52458;SDS011;38372;52.902;6.024;2022-07-23T01:11:49;10.50;;;5.55;;
52458;SDS011;38372;52.902;6.024;2022-07-23T01:14:16;8.70;;;5.25;;
52458;SDS011;38372;52.902;6.024;2022-07-23T01:16:44;15.18;;;7.50;;
52458;SDS011;38372;52.902;6.024;2022-07-23T01:19:11;13.70;;;7.78;;
52458;SDS011;38372;52.902;6.024;2022-07-23T01:21:39;11.32;;;6.63;;
52458;SDS011;38372;52.902;6.024;2022-07-23T01:24:07;15.00;;;8.23;;
52458;SDS011;38372;52.902;6.024;2022-07-23T01:26:34;14.00;;;7.65;;
52458;SDS011;38372;52.902;6.024;2022-07-23T01:29:01;24.30;;;10.77;;
52458;SDS011;38372;52.902;6.024;2022-07-23T01:31:27;10.88;;;5.85;;
52458;SDS011;38372;52.902;6.024;2022-07-23T01:33:53;12.10;;;7.00;;
52458;SDS011;38372;52.902;6.024;2022-07-23T01:36:19;16.02;;;7.80;;
52458;SDS011;38372;52.902;6.024;2022-07-23T01:38:45;18.08;;;8.90;;
52458;SDS011;38372;52.902;6.024;2022-07-23T01:41:11;16.90;;;9.30;;
52458;SDS011;38372;52.902;6.024;2022-07-23T01:43:37;15.07;;;9.05;;
52458;SDS011;38372;52.902;6.024;2022-07-23T01:46:03;14.60;;;8.80;;
52458;SDS011;38372;52.902;6.024;2022-07-23T01:48:29;12.60;;;7.85;;
52458;SDS011;38372;52.902;6.024;2022-07-23T01:50:54;12.13;;;8.25;;
52458;SDS011;38372;52.902;6.024;2022-07-23T01:53:20;16.85;;;9.27;;
52458;SDS011;38372;52.902;6.024;2022-07-23T01:55:46;17.88;;;10.40;;
52458;SDS011;38372;52.902;6.024;2022-07-23T01:58:12;22.02;;;9.65;;
52458;SDS011;38372;52.902;6.024;2022-07-23T02:00:38;15.07;;;8.43;;
52458;SDS011;38372;52.902;6.024;2022-07-23T02:03:04;9.80;;;6.30;;
52458;SDS011;38372;52.902;6.024;2022-07-23T02:05:31;121.18;;;15.60;;
52458;SDS011;38372;52.902;6.024;2022-07-23T02:07:57;211.55;;;15.80;;
52458;SDS011;38372;52.902;6.024;2022-07-23T02:10:24;287.58;;;22.38;;
52458;SDS011;38372;52.902;6.024;2022-07-23T02:12:51;266.95;;;17.88;;
52458;SDS011;38372;52.902;6.024;2022-07-23T02:15:17;92.90;;;8.27;;
52458;SDS011;38372;52.902;6.024;2022-07-23T02:17:43;41.65;;;5.00;;
52458;SDS011;38372;52.902;6.024;2022-07-23T02:20:09;44.17;;;5.00;;
52458;SDS011;38372;52.902;6.024;2022-07-23T02:22:36;44.95;;;6.93;;
52458;SDS011;38372;52.902;6.024;2022-07-23T02:25:04;52.85;;;6.95;;
52458;SDS011;38372;52.902;6.024;2022-07-23T02:27:31;226.30;;;16.10;;
52458;SDS011;38372;52.902;6.024;2022-07-23T02:29:57;176.68;;;11.40;;
52458;SDS011;38372;52.902;6.024;2022-07-23T02:32:23;138.63;;;8.25;;
52458;SDS011;38372;52.902;6.024;2022-07-23T02:34:49;136.07;;;7.43;;
52458;SDS011;38372;52.902;6.024;2022-07-23T02:37:16;128.18;;;8.30;;
52458;SDS011;38372;52.902;6.024;2022-07-23T02:39:42;131.77;;;8.30;;
52458;SDS011;38372;52.902;6.024;2022-07-23T02:42:08;149.95;;;7.82;;
52458;SDS011;38372;52.902;6.024;2022-07-23T02:44:34;283.40;;;16.85;;
52458;SDS011;38372;52.902;6.024;2022-07-23T02:47:00;167.85;;;10.95;;
52458;SDS011;38372;52.902;6.024;2022-07-23T02:49:26;89.75;;;10.27;;
52458;SDS011;38372;52.902;6.024;2022-07-23T02:51:52;136.50;;;11.63;;
52458;SDS011;38372;52.902;6.024;2022-07-23T02:54:18;112.72;;;9.40;;
52458;SDS011;38372;52.902;6.024;2022-07-23T02:56:44;5.95;;;4.05;;
52458;SDS011;38372;52.902;6.024;2022-07-23T02:59:10;10.13;;;5.60;;
52458;SDS011;38372;52.902;6.024;2022-07-23T03:01:37;8.45;;;3.83;;
52458;SDS011;38372;52.902;6.024;2022-07-23T03:04:02;9.45;;;2.00;;
52458;SDS011;38372;52.902;6.024;2022-07-23T03:06:29;14.35;;;2.42;;
52458;SDS011;38372;52.902;6.024;2022-07-23T03:08:54;4.78;;;2.05;;
52458;SDS011;38372;52.902;6.024;2022-07-23T03:11:20;5.88;;;3.63;;
52458;SDS011;38372;52.902;6.024;2022-07-23T03:13:46;64.95;;;7.60;;
52458;SDS011;38372;52.902;6.024;2022-07-23T03:16:12;57.25;;;7.00;;
52458;SDS011;38372;52.902;6.024;2022-07-23T03:18:38;8.40;;;3.30;;
52458;SDS011;38372;52.902;6.024;2022-07-23T03:21:04;176.82;;;12.07;;
52458;SDS011;38372;52.902;6.024;2022-07-23T03:23:30;158.75;;;12.18;;
52458;SDS011;38372;52.902;6.024;2022-07-23T03:25:56;23.33;;;4.57;;
52458;SDS011;38372;52.902;6.024;2022-07-23T03:28:22;10.25;;;5.13;;
52458;SDS011;38372;52.902;6.024;2022-07-23T03:30:48;6.68;;;4.13;;
52458;SDS011;38372;52.902;6.024;2022-07-23T03:33:14;8.27;;;4.60;;
52458;SDS011;38372;52.902;6.024;2022-07-23T03:35:42;13.20;;;5.38;;
52458;SDS011;38372;52.902;6.024;2022-07-23T03:38:08;11.50;;;5.97;;
52458;SDS011;38372;52.902;6.024;2022-07-23T03:40:34;38.83;;;4.68;;
52458;SDS011;38372;52.902;6.024;2022-07-23T03:43:00;182.38;;;13.20;;
52458;SDS011;38372;52.902;6.024;2022-07-23T03:45:26;130.35;;;8.57;;
52458;SDS011;38372;52.902;6.024;2022-07-23T03:47:52;339.67;;;19.63;;
52458;SDS011;38372;52.902;6.024;2022-07-23T03:50:18;37.60;;;3.33;;
52458;SDS011;38372;52.902;6.024;2022-07-23T03:52:45;21.00;;;2.80;;
52458;SDS011;38372;52.902;6.024;2022-07-23T03:55:11;111.85;;;7.47;;
52458;SDS011;38372;52.902;6.024;2022-07-23T03:57:37;161.57;;;8.95;;
52458;SDS011;38372;52.902;6.024;2022-07-23T04:00:03;151.65;;;8.65;;
52458;SDS011;38372;52.902;6.024;2022-07-23T04:02:32;261.23;;;14.63;;
52458;SDS011;38372;52.902;6.024;2022-07-23T04:04:58;107.35;;;6.63;;
52458;SDS011;38372;52.902;6.024;2022-07-23T04:07:25;187.02;;;10.68;;
52458;SDS011;38372;52.902;6.024;2022-07-23T04:09:51;134.40;;;7.80;;
52458;SDS011;38372;52.902;6.024;2022-07-23T04:12:17;26.33;;;4.25;;
52458;SDS011;38372;52.902;6.024;2022-07-23T04:14:43;27.35;;;4.22;;
52458;SDS011;38372;52.902;6.024;2022-07-23T04:17:09;24.40;;;5.13;;
52458;SDS011;38372;52.902;6.024;2022-07-23T04:19:36;25.35;;;6.68;;
52458;SDS011;38372;52.902;6.024;2022-07-23T04:22:05;43.70;;;4.57;;
52458;SDS011;38372;52.902;6.024;2022-07-23T04:24:32;14.15;;;2.92;;
52458;SDS011;38372;52.902;6.024;2022-07-23T04:26:58;10.02;;;3.38;;
52458;SDS011;38372;52.902;6.024;2022-07-23T04:29:24;15.88;;;6.03;;
52458;SDS011;38372;52.902;6.024;2022-07-23T04:31:50;9.98;;;5.72;;
52458;SDS011;38372;52.902;6.024;2022-07-23T04:34:16;16.52;;;7.57;;
52458;SDS011;38372;52.902;6.024;2022-07-23T04:36:42;14.32;;;6.72;;
52458;SDS011;38372;52.902;6.024;2022-07-23T04:39:08;21.85;;;9.30;;
52458;SDS011;38372;52.902;6.024;2022-07-23T04:41:34;8.88;;;5.55;;
52458;SDS011;38372;52.902;6.024;2022-07-23T04:44:00;9.90;;;6.32;;
52458;SDS011;38372;52.902;6.024;2022-07-23T04:46:26;11.70;;;5.82;;
52458;SDS011;38372;52.902;6.024;2022-07-23T04:48:53;13.32;;;7.25;;
52458;SDS011;38372;52.902;6.024;2022-07-23T04:51:20;10.20;;;6.53;;
52458;SDS011;38372;52.902;6.024;2022-07-23T04:53:46;9.40;;;6.35;;
52458;SDS011;38372;52.902;6.024;2022-07-23T04:56:12;9.63;;;6.22;;
52458;SDS011;38372;52.902;6.024;2022-07-23T04:58:38;8.10;;;4.95;;
52458;SDS011;38372;52.902;6.024;2022-07-23T05:01:04;8.55;;;5.00;;
52458;SDS011;38372;52.902;6.024;2022-07-23T05:03:30;8.23;;;5.70;;
52458;SDS011;38372;52.902;6.024;2022-07-23T05:05:56;14.02;;;7.05;;
52458;SDS011;38372;52.902;6.024;2022-07-23T05:08:22;10.32;;;6.82;;
52458;SDS011;38372;52.902;6.024;2022-07-23T05:10:48;13.43;;;7.45;;
52458;SDS011;38372;52.902;6.024;2022-07-23T05:13:14;16.05;;;8.30;;
52458;SDS011;38372;52.902;6.024;2022-07-23T05:15:41;14.38;;;7.60;;
52458;SDS011;38372;52.902;6.024;2022-07-23T05:18:07;10.00;;;6.95;;
52458;SDS011;38372;52.902;6.024;2022-07-23T05:20:33;13.25;;;7.57;;
52458;SDS011;38372;52.902;6.024;2022-07-23T05:22:59;12.68;;;7.28;;
52458;SDS011;38372;52.902;6.024;2022-07-23T05:25:26;11.52;;;6.82;;
52458;SDS011;38372;52.902;6.024;2022-07-23T05:27:52;12.68;;;7.75;;
52458;SDS011;38372;52.902;6.024;2022-07-23T05:30:18;10.48;;;7.20;;
52458;SDS011;38372;52.902;6.024;2022-07-23T05:32:44;13.48;;;8.25;;
52458;SDS011;38372;52.902;6.024;2022-07-23T05:35:10;10.77;;;7.78;;
52458;SDS011;38372;52.902;6.024;2022-07-23T05:37:36;11.73;;;7.03;;
52458;SDS011;38372;52.902;6.024;2022-07-23T05:40:03;10.90;;;6.57;;
52458;SDS011;38372;52.902;6.024;2022-07-23T05:42:33;11.20;;;7.18;;
52458;SDS011;38372;52.902;6.024;2022-07-23T05:45:00;12.48;;;7.68;;
52458;SDS011;38372;52.902;6.024;2022-07-23T05:47:26;10.52;;;7.03;;
52458;SDS011;38372;52.902;6.024;2022-07-23T05:49:52;9.38;;;6.85;;
52458;SDS011;38372;52.902;6.024;2022-07-23T05:52:18;9.43;;;5.75;;
52458;SDS011;38372;52.902;6.024;2022-07-23T05:54:44;11.35;;;6.25;;
52458;SDS011;38372;52.902;6.024;2022-07-23T05:57:10;7.90;;;5.50;;
52458;SDS011;38372;52.902;6.024;2022-07-23T05:59:36;11.40;;;6.28;;
52458;SDS011;38372;52.902;6.024;2022-07-23T06:02:02;7.60;;;5.38;;
52458;SDS011;38372;52.902;6.024;2022-07-23T06:04:28;9.25;;;5.22;;
52458;SDS011;38372;52.902;6.024;2022-07-23T06:06:55;8.32;;;4.68;;
52458;SDS011;38372;52.902;6.024;2022-07-23T06:09:21;7.32;;;5.07;;
52458;SDS011;38372;52.902;6.024;2022-07-23T06:11:47;6.72;;;4.75;;
52458;SDS011;38372;52.902;6.024;2022-07-23T06:14:12;6.32;;;4.28;;
52458;SDS011;38372;52.902;6.024;2022-07-23T06:16:38;7.30;;;4.50;;
52458;SDS011;38372;52.902;6.024;2022-07-23T06:19:04;7.15;;;4.53;;
52458;SDS011;38372;52.902;6.024;2022-07-23T06:21:30;5.93;;;4.05;;
52458;SDS011;38372;52.902;6.024;2022-07-23T06:23:56;8.23;;;4.82;;
52458;SDS011;38372;52.902;6.024;2022-07-23T06:26:22;4.60;;;3.83;;
52458;SDS011;38372;52.902;6.024;2022-07-23T06:28:49;5.53;;;3.83;;
52458;SDS011;38372;52.902;6.024;2022-07-23T06:31:18;4.85;;;2.97;;
52458;SDS011;38372;52.902;6.024;2022-07-23T06:33:44;3.17;;;2.15;;
52458;SDS011;38372;52.902;6.024;2022-07-23T06:36:10;4.88;;;2.03;;
52458;SDS011;38372;52.902;6.024;2022-07-23T06:38:36;2.17;;;1.38;;
52458;SDS011;38372;52.902;6.024;2022-07-23T06:41:02;3.20;;;1.35;;
52458;SDS011;38372;52.902;6.024;2022-07-23T06:43:29;2.33;;;1.20;;
52458;SDS011;38372;52.902;6.024;2022-07-23T06:45:56;3.60;;;1.40;;
52458;SDS011;38372;52.902;6.024;2022-07-23T06:48:22;3.17;;;1.17;;
52458;SDS011;38372;52.902;6.024;2022-07-23T06:50:48;3.80;;;1.30;;
52458;SDS011;38372;52.902;6.024;2022-07-23T06:53:13;2.83;;;1.50;;
52458;SDS011;38372;52.902;6.024;2022-07-23T06:55:39;3.88;;;1.20;;
52458;SDS011;38372;52.902;6.024;2022-07-23T06:58:05;3.00;;;1.40;;
52458;SDS011;38372;52.902;6.024;2022-07-23T07:00:31;1.48;;;0.98;;
52458;SDS011;38372;52.902;6.024;2022-07-23T07:02:57;2.55;;;1.05;;
52458;SDS011;38372;52.902;6.024;2022-07-23T07:05:23;3.03;;;1.30;;
52458;SDS011;38372;52.902;6.024;2022-07-23T07:07:52;2.97;;;1.08;;
52458;SDS011;38372;52.902;6.024;2022-07-23T07:10:19;1.58;;;0.60;;
52458;SDS011;38372;52.902;6.024;2022-07-23T07:12:45;1.20;;;0.40;;
52458;SDS011;38372;52.902;6.024;2022-07-23T07:15:11;1.98;;;0.55;;
52458;SDS011;38372;52.902;6.024;2022-07-23T07:17:37;1.92;;;0.65;;
52458;SDS011;38372;52.902;6.024;2022-07-23T07:20:04;2.15;;;0.75;;
52458;SDS011;38372;52.902;6.024;2022-07-23T07:22:31;2.65;;;0.60;;
52458;SDS011;38372;52.902;6.024;2022-07-23T07:24:57;1.23;;;0.43;;
52458;SDS011;38372;52.902;6.024;2022-07-23T07:27:23;1.75;;;0.50;;
52458;SDS011;38372;52.902;6.024;2022-07-23T07:29:48;4.07;;;0.80;;
52458;SDS011;38372;52.902;6.024;2022-07-23T07:32:14;2.42;;;0.68;;
52458;SDS011;38372;52.902;6.024;2022-07-23T07:34:40;2.20;;;0.63;;
52458;SDS011;38372;52.902;6.024;2022-07-23T07:37:06;1.05;;;0.50;;
52458;SDS011;38372;52.902;6.024;2022-07-23T07:39:32;2.22;;;0.70;;
52458;SDS011;38372;52.902;6.024;2022-07-23T07:41:57;1.00;;;0.40;;
52458;SDS011;38372;52.902;6.024;2022-07-23T07:44:23;0.85;;;0.43;;
52458;SDS011;38372;52.902;6.024;2022-07-23T07:46:49;1.75;;;0.70;;
52458;SDS011;38372;52.902;6.024;2022-07-23T07:49:15;1.65;;;0.50;;
52458;SDS011;38372;52.902;6.024;2022-07-23T07:51:44;1.98;;;0.40;;
52458;SDS011;38372;52.902;6.024;2022-07-23T07:54:10;1.60;;;0.50;;
52458;SDS011;38372;52.902;6.024;2022-07-23T07:56:37;3.55;;;0.95;;
52458;SDS011;38372;52.902;6.024;2022-07-23T07:59:03;1.50;;;0.50;;
52458;SDS011;38372;52.902;6.024;2022-07-23T08:01:28;2.30;;;0.45;;
52458;SDS011;38372;52.902;6.024;2022-07-23T08:03:54;3.08;;;0.70;;
52458;SDS011;38372;52.902;6.024;2022-07-23T08:06:20;2.08;;;0.60;;
52458;SDS011;38372;52.902;6.024;2022-07-23T08:08:46;4.50;;;0.75;;
52458;SDS011;38372;52.902;6.024;2022-07-23T08:11:12;2.05;;;0.52;;
52458;SDS011;38372;52.902;6.024;2022-07-23T08:13:38;1.45;;;0.40;;
52458;SDS011;38372;52.902;6.024;2022-07-23T08:16:04;1.52;;;0.40;;
52458;SDS011;38372;52.902;6.024;2022-07-23T08:18:30;0.77;;;0.45;;
52458;SDS011;38372;52.902;6.024;2022-07-23T08:20:56;1.42;;;0.40;;
52458;SDS011;38372;52.902;6.024;2022-07-23T08:23:21;2.08;;;0.40;;
52458;SDS011;38372;52.902;6.024;2022-07-23T08:25:47;2.92;;;0.60;;
52458;SDS011;38372;52.902;6.024;2022-07-23T08:28:13;2.00;;;0.70;;
52458;SDS011;38372;52.902;6.024;2022-07-23T08:30:40;2.40;;;0.70;;
52458;SDS011;38372;52.902;6.024;2022-07-23T08:33:08;1.25;;;0.50;;
52458;SDS011;38372;52.902;6.024;2022-07-23T08:35:39;1.88;;;0.55;;
52458;SDS011;38372;52.902;6.024;2022-07-23T08:38:13;0.90;;;0.43;;
52458;SDS011;38372;52.902;6.024;2022-07-23T08:40:41;2.30;;;0.68;;
52458;SDS011;38372;52.902;6.024;2022-07-23T08:43:13;1.55;;;0.60;;
52458;SDS011;38372;52.902;6.024;2022-07-23T08:45:41;1.60;;;0.70;;
52458;SDS011;38372;52.902;6.024;2022-07-23T08:48:15;0.63;;;0.38;;
52458;SDS011;38372;52.902;6.024;2022-07-23T08:50:47;1.35;;;0.60;;
52458;SDS011;38372;52.902;6.024;2022-07-23T08:53:15;1.65;;;0.60;;
52458;SDS011;38372;52.902;6.024;2022-07-23T08:55:46;2.05;;;0.60;;
52458;SDS011;38372;52.902;6.024;2022-07-23T08:58:13;1.73;;;0.55;;
52458;SDS011;38372;52.902;6.024;2022-07-23T09:00:39;2.35;;;0.73;;
52458;SDS011;38372;52.902;6.024;2022-07-23T09:03:16;2.92;;;1.05;;
52458;SDS011;38372;52.902;6.024;2022-07-23T09:05:43;1.48;;;0.70;;
52458;SDS011;38372;52.902;6.024;2022-07-23T09:08:11;1.25;;;0.60;;
52458;SDS011;38372;52.902;6.024;2022-07-23T09:10:55;1.98;;;0.65;;
52458;SDS011;38372;52.902;6.024;2022-07-23T09:15:55;2.40;;;0.70;;
52458;SDS011;38372;52.902;6.024;2022-07-23T09:18:28;1.75;;;0.70;;
52458;SDS011;38372;52.902;6.024;2022-07-23T09:21:09;1.58;;;0.80;;
52458;SDS011;38372;52.902;6.024;2022-07-23T09:23:38;1.92;;;0.70;;
52458;SDS011;38372;52.902;6.024;2022-07-23T09:26:16;1.45;;;0.80;;
52458;SDS011;38372;52.902;6.024;2022-07-23T09:34:21;1.45;;;0.80;;
52458;SDS011;38372;52.902;6.024;2022-07-23T09:39:14;1.95;;;0.80;;
52458;SDS011;38372;52.902;6.024;2022-07-23T09:41:46;2.28;;;0.85;;
52458;SDS011;38372;52.902;6.024;2022-07-23T09:44:13;1.42;;;0.80;;
52458;SDS011;38372;52.902;6.024;2022-07-23T09:46:41;3.00;;;0.98;;
52458;SDS011;38372;52.902;6.024;2022-07-23T09:49:20;1.92;;;1.00;;
52458;SDS011;38372;52.902;6.024;2022-07-23T09:54:20;2.33;;;1.08;;
52458;SDS011;38372;52.902;6.024;2022-07-23T09:56:49;2.22;;;0.80;;
52458;SDS011;38372;52.902;6.024;2022-07-23T09:59:16;1.88;;;0.80;;
52458;SDS011;38372;52.902;6.024;2022-07-23T10:01:44;4.72;;;1.27;;
52458;SDS011;38372;52.902;6.024;2022-07-23T10:04:10;3.17;;;1.00;;
52458;SDS011;38372;52.902;6.024;2022-07-23T10:06:38;3.47;;;1.20;;
52458;SDS011;38372;52.902;6.024;2022-07-23T10:09:06;2.15;;;0.70;;
52458;SDS011;38372;52.902;6.024;2022-07-23T10:11:34;3.15;;;1.10;;
52458;SDS011;38372;52.902;6.024;2022-07-23T10:14:00;1.50;;;0.90;;
52458;SDS011;38372;52.902;6.024;2022-07-23T10:16:29;3.15;;;1.15;;
52458;SDS011;38372;52.902;6.024;2022-07-23T10:18:55;2.47;;;1.13;;
52458;SDS011;38372;52.902;6.024;2022-07-23T10:21:24;3.63;;;1.10;;
52458;SDS011;38372;52.902;6.024;2022-07-23T10:24:26;4.00;;;1.08;;
52458;SDS011;38372;52.902;6.024;2022-07-23T10:35:29;3.42;;;1.50;;
52458;SDS011;38372;52.902;6.024;2022-07-23T10:38:20;2.50;;;1.10;;
52458;SDS011;38372;52.902;6.024;2022-07-23T10:41:03;2.53;;;1.15;;
52458;SDS011;38372;52.902;6.024;2022-07-23T10:43:30;2.55;;;1.25;;
52458;SDS011;38372;52.902;6.024;2022-07-23T10:46:20;3.13;;;1.10;;
52458;SDS011;38372;52.902;6.024;2022-07-23T10:57:09;2.63;;;1.45;;
52458;SDS011;38372;52.902;6.024;2022-07-23T11:02:38;2.20;;;1.05;;
52458;SDS011;38372;52.902;6.024;2022-07-23T11:05:05;2.00;;;1.40;;
52458;SDS011;38372;52.902;6.024;2022-07-23T11:07:34;3.80;;;1.48;;
52458;SDS011;38372;52.902;6.024;2022-07-23T11:10:03;3.17;;;1.30;;
52458;SDS011;38372;52.902;6.024;2022-07-23T11:14:59;1.88;;;0.95;;
52458;SDS011;38372;52.902;6.024;2022-07-23T11:17:40;3.58;;;1.30;;
52458;SDS011;38372;52.902;6.024;2022-07-23T11:20:26;2.75;;;1.40;;
52458;SDS011;38372;52.902;6.024;2022-07-23T11:22:56;2.30;;;1.10;;
52458;SDS011;38372;52.902;6.024;2022-07-23T11:27:55;2.40;;;1.45;;
52458;SDS011;38372;52.902;6.024;2022-07-23T11:30:43;3.35;;;1.30;;
52458;SDS011;38372;52.902;6.024;2022-07-23T11:35:37;3.08;;;1.38;;
52458;SDS011;38372;52.902;6.024;2022-07-23T11:38:14;2.25;;;1.58;;
52458;SDS011;38372;52.902;6.024;2022-07-23T11:40:47;2.65;;;1.30;;
52458;SDS011;38372;52.902;6.024;2022-07-23T11:43:15;4.47;;;1.83;;
52458;SDS011;38372;52.902;6.024;2022-07-23T11:45:43;3.10;;;1.75;;
52458;SDS011;38372;52.902;6.024;2022-07-23T11:48:19;2.75;;;1.35;;
52458;SDS011;38372;52.902;6.024;2022-07-23T11:50:47;2.88;;;1.30;;
52458;SDS011;38372;52.902;6.024;2022-07-23T11:53:21;3.65;;;1.60;;
52458;SDS011;38372;52.902;6.024;2022-07-23T11:55:51;3.22;;;1.88;;
52458;SDS011;38372;52.902;6.024;2022-07-23T11:58:17;4.22;;;1.90;;
52458;SDS011;38372;52.902;6.024;2022-07-23T12:00:44;2.95;;;1.60;;
52458;SDS011;38372;52.902;6.024;2022-07-23T12:03:09;3.97;;;1.55;;
52458;SDS011;38372;52.902;6.024;2022-07-23T12:05:36;3.05;;;1.40;;
52458;SDS011;38372;52.902;6.024;2022-07-23T12:08:05;3.03;;;1.90;;
52458;SDS011;38372;52.902;6.024;2022-07-23T12:10:36;2.50;;;1.55;;
52458;SDS011;38372;52.902;6.024;2022-07-23T12:13:04;2.75;;;1.50;;
52458;SDS011;38372;52.902;6.024;2022-07-23T12:15:33;3.17;;;1.25;;
52458;SDS011;38372;52.902;6.024;2022-07-23T12:18:05;3.60;;;1.77;;
52458;SDS011;38372;52.902;6.024;2022-07-23T12:20:36;2.00;;;1.70;;
52458;SDS011;38372;52.902;6.024;2022-07-23T12:23:04;2.05;;;1.52;;
52458;SDS011;38372;52.902;6.024;2022-07-23T12:25:39;3.33;;;1.55;;
52458;SDS011;38372;52.902;6.024;2022-07-23T12:28:10;2.42;;;1.30;;
52458;SDS011;38372;52.902;6.024;2022-07-23T12:30:48;2.67;;;1.90;;
52458;SDS011;38372;52.902;6.024;2022-07-23T12:33:21;2.15;;;1.40;;
52458;SDS011;38372;52.902;6.024;2022-07-23T12:35:50;3.88;;;1.95;;
52458;SDS011;38372;52.902;6.024;2022-07-23T12:38:19;4.60;;;1.63;;
52458;SDS011;38372;52.902;6.024;2022-07-23T12:41:08;3.00;;;1.95;;
52458;SDS011;38372;52.902;6.024;2022-07-23T12:43:36;3.08;;;1.88;;
52458;SDS011;38372;52.902;6.024;2022-07-23T12:46:04;3.13;;;1.80;;
52458;SDS011;38372;52.902;6.024;2022-07-23T12:48:36;2.40;;;1.73;;
52458;SDS011;38372;52.902;6.024;2022-07-23T12:51:06;5.47;;;1.70;;
52458;SDS011;38372;52.902;6.024;2022-07-23T12:56:15;2.83;;;1.83;;
52458;SDS011;38372;52.902;6.024;2022-07-23T12:58:53;2.95;;;2.03;;
52458;SDS011;38372;52.902;6.024;2022-07-23T13:03:59;3.85;;;2.05;;
52458;SDS011;38372;52.902;6.024;2022-07-23T13:06:31;3.60;;;1.83;;
52458;SDS011;38372;52.902;6.024;2022-07-23T13:09:19;2.63;;;1.80;;
52458;SDS011;38372;52.902;6.024;2022-07-23T13:11:48;3.30;;;2.00;;
52458;SDS011;38372;52.902;6.024;2022-07-23T13:14:15;3.13;;;2.00;;
52458;SDS011;38372;52.902;6.024;2022-07-23T13:16:42;2.08;;;1.60;;
52458;SDS011;38372;52.902;6.024;2022-07-23T13:19:09;4.60;;;2.38;;
52458;SDS011;38372;52.902;6.024;2022-07-23T13:21:35;3.58;;;2.20;;
52458;SDS011;38372;52.902;6.024;2022-07-23T13:24:01;2.88;;;2.10;;
52458;SDS011;38372;52.902;6.024;2022-07-23T13:26:27;3.92;;;1.95;;
52458;SDS011;38372;52.902;6.024;2022-07-23T13:28:53;2.83;;;1.80;;
52458;SDS011;38372;52.902;6.024;2022-07-23T13:31:19;5.25;;;2.33;;
52458;SDS011;38372;52.902;6.024;2022-07-23T13:33:45;4.03;;;2.22;;
52458;SDS011;38372;52.902;6.024;2022-07-23T13:36:11;3.17;;;2.08;;
52458;SDS011;38372;52.902;6.024;2022-07-23T13:38:37;3.80;;;2.00;;
52458;SDS011;38372;52.902;6.024;2022-07-23T13:41:04;2.80;;;1.75;;
52458;SDS011;38372;52.902;6.024;2022-07-23T13:43:31;4.55;;;2.22;;
52458;SDS011;38372;52.902;6.024;2022-07-23T13:45:57;2.72;;;1.70;;
52458;SDS011;38372;52.902;6.024;2022-07-23T13:48:23;3.10;;;2.00;;
52458;SDS011;38372;52.902;6.024;2022-07-23T13:50:49;3.97;;;2.38;;
52458;SDS011;38372;52.902;6.024;2022-07-23T13:53:20;4.15;;;1.75;;
52458;SDS011;38372;52.902;6.024;2022-07-23T13:55:48;2.10;;;1.60;;
52458;SDS011;38372;52.902;6.024;2022-07-23T13:58:14;2.80;;;1.88;;
52458;SDS011;38372;52.902;6.024;2022-07-23T14:00:42;2.13;;;1.70;;
52458;SDS011;38372;52.902;6.024;2022-07-23T14:03:10;4.25;;;2.17;;
52458;SDS011;38372;52.902;6.024;2022-07-23T14:05:36;3.58;;;1.85;;
52458;SDS011;38372;52.902;6.024;2022-07-23T14:08:02;6.88;;;3.35;;
52458;SDS011;38372;52.902;6.024;2022-07-23T14:10:30;2.17;;;1.70;;
52458;SDS011;38372;52.902;6.024;2022-07-23T14:13:00;2.85;;;2.00;;
52458;SDS011;38372;52.902;6.024;2022-07-23T14:15:27;2.08;;;1.65;;
52458;SDS011;38372;52.902;6.024;2022-07-23T14:17:55;4.60;;;2.38;;
52458;SDS011;38372;52.902;6.024;2022-07-23T14:20:22;2.55;;;1.40;;
52458;SDS011;38372;52.902;6.024;2022-07-23T14:22:48;4.20;;;1.75;;
52458;SDS011;38372;52.902;6.024;2022-07-23T14:25:15;2.22;;;1.65;;
52458;SDS011;38372;52.902;6.024;2022-07-23T14:27:42;3.60;;;1.70;;
52458;SDS011;38372;52.902;6.024;2022-07-23T14:30:08;6.35;;;3.22;;
52458;SDS011;38372;52.902;6.024;2022-07-23T14:32:35;3.83;;;1.45;;
52458;SDS011;38372;52.902;6.024;2022-07-23T14:35:01;2.45;;;1.63;;
52458;SDS011;38372;52.902;6.024;2022-07-23T14:37:28;4.07;;;1.50;;
52458;SDS011;38372;52.902;6.024;2022-07-23T14:39:54;2.47;;;1.48;;
52458;SDS011;38372;52.902;6.024;2022-07-23T14:42:20;3.47;;;1.40;;
52458;SDS011;38372;52.902;6.024;2022-07-23T14:44:46;4.03;;;1.85;;
52458;SDS011;38372;52.902;6.024;2022-07-23T14:47:12;3.50;;;1.80;;
52458;SDS011;38372;52.902;6.024;2022-07-23T14:49:38;3.58;;;2.03;;
52458;SDS011;38372;52.902;6.024;2022-07-23T14:52:04;2.63;;;1.45;;
52458;SDS011;38372;52.902;6.024;2022-07-23T14:54:30;4.68;;;2.20;;
52458;SDS011;38372;52.902;6.024;2022-07-23T14:56:57;4.43;;;1.83;;
52458;SDS011;38372;52.902;6.024;2022-07-23T14:59:26;3.47;;;1.60;;
52458;SDS011;38372;52.902;6.024;2022-07-23T15:01:52;5.07;;;1.63;;
52458;SDS011;38372;52.902;6.024;2022-07-23T15:04:19;2.53;;;1.63;;
52458;SDS011;38372;52.902;6.024;2022-07-23T15:06:45;3.97;;;1.70;;
52458;SDS011;38372;52.902;6.024;2022-07-23T15:09:11;4.05;;;1.73;;
52458;SDS011;38372;52.902;6.024;2022-07-23T15:11:38;3.25;;;1.95;;
52458;SDS011;38372;52.902;6.024;2022-07-23T15:14:04;2.22;;;1.63;;
52458;SDS011;38372;52.902;6.024;2022-07-23T15:16:30;2.63;;;1.60;;
52458;SDS011;38372;52.902;6.024;2022-07-23T15:18:57;3.53;;;1.35;;
52458;SDS011;38372;52.902;6.024;2022-07-23T15:21:22;2.88;;;1.52;;
52458;SDS011;38372;52.902;6.024;2022-07-23T15:23:49;2.75;;;1.65;;
52458;SDS011;38372;52.902;6.024;2022-07-23T15:26:14;2.20;;;1.38;;
52458;SDS011;38372;52.902;6.024;2022-07-23T15:28:40;4.25;;;1.83;;